Bloomington, Minnesota
Current Conditions -  °F | °C
As of 8:53 AM on Wednesday 22 Oct 2014 (Local Time) from KMSP Reporting Station
Few Clouds Few Clouds  
Wind Chill: 35°   Ceiling: Unl
Heat Index: 42°   Visibility: 10mi
Dew Point: 36°   Wind: 14mph
Humidity: 79%   Direction: 140°SE
Pressure: 30.2"   Gusts: NA
Location:  44.82°N, 93.31°W
Report Text: KMSP 221353Z 14012KT 10SM FEW150 FEW250 06/02 A3020 RMK AO2 SLP233 T00560022
Loading
Personal Weather Stations






























Interactive Weather Map
Tropical Storm Tracking
New forecast layout! Learn more

10-Day Weather Forecast

Advertisements
Track Severe Weather on mobile